Time;durP1;ratioP1;P1;durP2;ratioP2;P2;SDS_P1;SDS_P2;PMS_P1;PMS_P2;Temp;Humidity;BMP_temperature;BMP_pressure;BME280_temperature;BME280_humidity;BME280_pressure;Samples;Min_cycle;Max_cycle;Signal;HPM_P1;HPM_P2
2023/05/21 08:46:14;;;;;;;7.18;5.63;;;;;;;22.83;46.26;99407.59;1082419;54;20019;31
2023/05/21 08:48:34;;;;;;;7.40;5.90;;;;;;;22.62;46.82;99393.56;1087500;54;20030;-86
2023/05/21 08:49:37;;;;;;;8.70;6.63;;;;;;;22.78;46.56;99404.78;1087370;47;20026;-87
2023/05/21 08:50:42;;;;;;;8.05;5.68;;;;;;;22.89;46.68;99398.47;1087396;46;20026;-85
2023/05/21 08:52:54;;;;;;;8.02;6.57;;;;;;;22.59;46.30;99400.31;1088056;54;20038;-85
2023/05/21 08:55:02;;;;;;;7.05;5.57;;;;;;;22.87;45.81;99406.88;1088062;54;20014;-85
2023/05/21 08:58:46;;;;;;;7.82;5.85;;;;;;;22.72;46.15;99403.84;1087392;54;20026;-85
2023/05/21 08:59:50;;;;;;;7.88;5.82;;;;;;;22.67;46.09;99406.47;1087469;47;20348;-86
2023/05/21 09:01:00;;;;;;;7.35;5.88;;;;;;;22.52;46.24;99404.25;1087738;47;20027;-86
2023/05/21 09:03:16;;;;;;;7.47;5.72;;;;;;;22.88;45.53;99400.34;1087452;47;19943;-85
2023/05/21 09:05:23;;;;;;;7.85;5.43;;;;;;;23.27;45.01;99397.06;1087549;54;20035;-87
2023/05/21 09:06:25;;;;;;;7.75;5.97;;;;;;;23.45;44.82;99401.44;1085976;47;20038;-84
2023/05/21 09:07:30;;;;;;;8.05;4.85;;;;;;;23.49;44.71;99397.16;1086911;47;20022;-85
2023/05/21 09:09:01;;;;;;;6.95;5.40;;;;;;;23.61;43.81;99404.47;1087077;47;20030;-83
2023/05/21 09:10:13;;;;;;;6.78;5.43;;;;;;;23.74;44.23;99398.66;1087114;47;20022;-84
2023/05/21 09:12:20;;;;;;;7.10;5.78;;;;;;;23.67;44.22;99400.75;1087824;54;20090;-84
2023/05/21 09:14:44;;;;;;;7.32;5.70;;;;;;;23.78;44.00;99399.84;1085447;47;20868;-87
2023/05/21 09:15:56;;;;;;;6.78;5.80;;;;;;;23.88;43.83;99390.16;1087682;47;20110;-88
2023/05/21 09:16:58;;;;;;;7.70;5.85;;;;;;;23.81;43.78;99396.59;1087451;47;20022;-85
2023/05/21 09:19:06;;;;;;;6.75;5.40;;;;;;;24.15;43.16;99395.78;1087767;54;20017;-86
2023/05/21 09:20:14;;;;;;;6.63;5.15;;;;;;;23.96;43.38;99390.59;1074574;47;20034;31
2023/05/21 09:23:32;;;;;;;7.78;5.80;;;;;;;24.06;43.39;99394.53;1087644;54;20050;-85
2023/05/21 09:28:16;;;;;;;8.00;6.13;;;;;;;24.11;43.35;99392.72;1087379;54;20026;-84
2023/05/21 09:29:17;;;;;;;7.93;5.53;;;;;;;24.28;43.19;99400.06;1088873;39;20810;-84
2023/05/21 09:30:21;;;;;;;6.00;4.93;;;;;;;24.44;42.93;99401.09;1086823;47;20033;-85
2023/05/21 09:31:23;;;;;;;6.90;5.93;;;;;;;24.16;43.11;99393.88;1087480;47;20041;-85
2023/05/21 09:32:26;;;;;;;8.50;5.60;;;;;;;24.09;43.21;99392.13;1087632;47;20037;-85
2023/05/21 09:33:30;;;;;;;8.02;5.80;;;;;;;24.41;42.66;99396.16;1087569;47;20026;-84
2023/05/21 09:38:10;;;;;;;6.88;5.30;;;;;;;24.09;42.76;99394.88;1075636;54;21360;-87
2023/05/21 09:40:18;;;;;;;7.95;6.45;;;;;;;23.95;42.89;99399.03;1081903;39;21379;-86
2023/05/21 09:41:30;;;;;;;7.95;5.88;;;;;;;23.93;42.99;99384.78;1087859;47;20038;-88
2023/05/21 09:43:37;;;;;;;7.07;5.50;;;;;;;24.11;43.01;99391.91;1079746;54;20812;31
2023/05/21 09:44:43;;;;;;;7.63;5.60;;;;;;;24.19;42.77;99396.09;1068958;46;20331;31
2023/05/21 09:49:27;;;;;;;6.75;5.40;;;;;;;24.25;42.54;99382.28;1087899;54;20068;-85
2023/05/21 09:50:30;;;;;;;6.50;5.03;;;;;;;24.39;42.38;99388.19;1087670;46;20030;-85
2023/05/21 09:51:33;;;;;;;6.55;5.05;;;;;;;24.53;42.15;99391.38;1087478;54;20044;-85
2023/05/21 09:52:35;;;;;;;6.75;5.28;;;;;;;24.81;41.74;99394.22;1087774;54;20027;-85
2023/05/21 09:53:45;;;;;;;6.75;4.65;;;;;;;24.91;41.18;99386.16;1087160;47;20030;-83
2023/05/21 09:54:46;;;;;;;7.43;5.50;;;;;;;24.69;41.25;99388.91;1087836;54;20797;-85
2023/05/21 09:55:59;;;;;;;7.32;5.10;;;;;;;24.55;41.01;99391.16;1087704;46;21576;-85
2023/05/21 09:57:01;;;;;;;6.63;5.45;;;;;;;24.69;41.08;99388.91;1087849;46;20026;-85
2023/05/21 09:58:05;;;;;;;7.20;4.93;;;;;;;24.73;41.10;99388.13;1087251;46;20026;-83
2023/05/21 09:59:09;;;;;;;7.05;5.40;;;;;;;24.99;40.80;99380.22;1088497;39;20693;-84
2023/05/21 10:00:17;;;;;;;6.32;4.85;;;;;;;25.22;40.03;99387.31;1087406;39;20902;-84
2023/05/21 10:01:21;;;;;;;6.40;4.63;;;;;;;25.43;39.90;99383.97;1087528;54;20030;-87
2023/05/21 10:02:25;;;;;;;7.07;4.97;;;;;;;25.43;39.66;99378.50;1087753;46;20019;-86
2023/05/21 10:03:30;;;;;;;7.55;5.50;;;;;;;25.50;39.62;99379.13;1087369;47;20029;-86
2023/05/21 10:06:56;;;;;;;6.93;5.13;;;;;;;25.50;39.84;99379.94;1087125;46;20434;-84
2023/05/21 10:08:00;;;;;;;5.63;4.47;;;;;;;25.84;39.34;99373.38;1088025;39;20319;-84
2023/05/21 10:09:11;;;;;;;6.13;4.53;;;;;;;25.98;38.68;99374.56;1087237;47;20026;-85
2023/05/21 10:12:26;;;;;;;6.82;4.97;;;;;;;25.43;39.76;99373.03;1088035;54;20808;-84
2023/05/21 10:13:27;;;;;;;6.28;4.68;;;;;;;25.52;39.77;99371.47;1087953;46;20122;-86
2023/05/21 10:15:33;;;;;;;8.10;5.60;;;;;;;25.10;39.63;99378.41;1087364;39;20716;31
2023/05/21 10:16:35;;;;;;;7.22;5.35;;;;;;;24.88;39.77;99373.00;1087504;46;20049;-87
2023/05/21 10:19:50;;;;;;;6.63;5.05;;;;;;;25.43;39.13;99375.75;1087848;54;20010;-83
2023/05/21 10:21:56;;;;;;;7.05;4.85;;;;;;;25.72;38.67;99375.44;1087899;54;20014;-83
2023/05/21 10:24:10;;;;;;;6.85;5.18;;;;;;;25.32;38.42;99372.88;1088268;54;20066;-83
2023/05/21 10:25:12;;;;;;;6.78;5.00;;;;;;;25.33;38.43;99369.06;1088009;54;20045;-86
2023/05/21 10:29:51;;;;;;;8.07;5.32;;;;;;;25.54;38.03;99366.56;1085690;54;20034;-83
2023/05/21 10:32:17;;;;;;;7.07;5.15;;;;;;;25.15;38.76;99366.72;1087932;54;20067;-84
2023/05/21 10:33:21;;;;;;;6.45;5.15;;;;;;;25.09;38.96;99368.56;1088075;54;20030;-85
2023/05/21 10:34:26;;;;;;;8.18;5.32;;;;;;;24.89;39.37;99372.72;1087908;46;20038;-84
2023/05/21 10:35:28;;;;;;;6.15;4.68;;;;;;;25.02;38.92;99373.41;1087549;47;20046;-83
2023/05/21 10:36:32;;;;;;;6.93;5.68;;;;;;;24.79;39.31;99379.97;1087679;54;20018;-82
2023/05/21 10:37:34;;;;;;;7.30;5.70;;;;;;;24.70;39.18;99383.16;1087636;54;20030;-85
2023/05/21 10:38:40;;;;;;;8.32;6.00;;;;;;;24.68;39.50;99371.66;1087774;47;20037;-85
2023/05/21 10:39:47;;;;;;;8.77;5.93;;;;;;;24.80;39.45;99370.72;1087520;54;20042;-84
2023/05/21 10:40:52;;;;;;;7.95;5.38;;;;;;;24.76;39.27;99371.22;1092233;39;20219;-84
2023/05/21 10:44:12;;;;;;;6.07;4.60;;;;;;;25.32;38.20;99366.59;1087733;54;20031;-85
2023/05/21 10:45:21;;;;;;;7.60;5.55;;;;;;;25.30;38.22;99371.50;1087809;54;20053;-86
2023/05/21 10:47:05;;;;;;;8.27;5.75;;;;;;;25.40;37.66;99368.09;1087553;47;20045;-85
2023/05/21 10:48:25;;;;;;;6.82;5.57;;;;;;;25.48;37.50;99368.41;1087463;46;20027;-86
2023/05/21 10:50:49;;;;;;;7.25;4.97;;;;;;;25.26;37.74;99373.13;1076707;54;20145;-84
2023/05/21 10:51:51;;;;;;;6.15;4.90;;;;;;;25.13;38.52;99358.78;1076955;47;20513;31
2023/05/21 10:53:07;;;;;;;6.65;5.13;;;;;;;25.03;38.93;99358.66;1080650;46;20046;-83
2023/05/21 10:55:44;;;;;;;9.13;5.68;;;;;;;24.81;39.07;99359.50;1087992;54;20026;-84
2023/05/21 10:56:52;;;;;;;6.57;5.45;;;;;;;24.77;39.18;99359.19;1088160;54;20057;-85
2023/05/21 10:58:29;;;;;;;8.75;6.13;;;;;;;24.71;39.55;99375.78;1088082;54;20067;-84
2023/05/21 11:00:35;;;;;;;6.65;5.10;;;;;;;24.73;39.93;99366.28;1082758;54;20054;-87
2023/05/21 11:03:02;;;;;;;6.75;5.45;;;;;;;24.82;39.54;99361.16;1075982;54;20046;31
2023/05/21 11:04:03;;;;;;;7.05;5.22;;;;;;;24.79;39.54;99361.69;1093072;39;20307;-84
2023/05/21 11:05:09;;;;;;;7.85;5.25;;;;;;;24.94;39.05;99352.00;1076989;31;21023;31
2023/05/21 11:09:46;;;;;;;6.97;5.35;;;;;;;25.54;37.80;99348.25;1082043;47;20055;31
2023/05/21 11:12:18;;;;;;;6.47;5.22;;;;;;;25.44;38.47;99341.84;1088670;54;20023;-83
2023/05/21 11:13:20;;;;;;;6.72;5.07;;;;;;;25.61;38.59;99344.47;1087782;54;20046;-84
2023/05/21 11:15:25;;;;;;;6.15;4.80;;;;;;;25.70;38.16;99345.63;1087926;54;20003;-85
2023/05/21 11:16:28;;;;;;;6.13;4.85;;;;;;;25.91;37.87;99338.38;1087868;54;20058;-84
2023/05/21 11:17:43;;;;;;;6.10;4.55;;;;;;;26.04;37.55;99333.53;1087552;47;20038;-85
2023/05/21 11:23:50;;;;;;;7.60;6.00;;;;;;;25.96;37.73;99337.59;1075613;54;20092;-85
2023/05/21 11:25:04;;;;;;;7.22;5.75;;;;;;;25.69;38.24;99333.03;1086663;46;20098;-83
2023/05/21 11:28:37;;;;;;;6.85;5.70;;;;;;;25.58;38.59;99337.59;1082099;54;20090;31
2023/05/21 11:29:48;;;;;;;7.20;5.70;;;;;;;25.74;38.38;99335.78;1067980;47;20038;31
2023/05/21 11:32:04;;;;;;;6.40;5.07;;;;;;;26.09;37.76;99325.38;1085874;54;20045;31
2023/05/21 11:34:17;;;;;;;7.13;5.10;;;;;;;26.09;38.11;99326.19;1088744;54;20035;-85
2023/05/21 11:35:21;;;;;;;8.55;5.72;;;;;;;26.13;37.72;99321.81;1087738;47;20053;-86
2023/05/21 11:36:26;;;;;;;8.43;6.10;;;;;;;26.04;37.78;99319.84;1087829;46;20011;-82
2023/05/21 11:38:32;;;;;;;9.60;5.78;;;;;;;25.83;38.08;99327.91;1087492;54;20023;-82
2023/05/21 11:39:39;;;;;;;8.93;5.55;;;;;;;25.98;37.78;99321.72;1087272;46;20031;-83
2023/05/21 11:40:53;;;;;;;6.82;5.18;;;;;;;26.19;37.32;99319.94;1087279;46;20070;-84
2023/05/21 11:44:20;;;;;;;8.35;5.65;;;;;;;26.08;37.61;99320.94;1087564;39;20220;-83
2023/05/21 11:45:25;;;;;;;6.53;5.30;;;;;;;26.01;37.63;99308.31;1087741;47;20106;-84
2023/05/21 11:46:27;;;;;;;8.52;5.78;;;;;;;25.97;37.93;99312.69;1087884;54;20038;-83
2023/05/21 11:47:31;;;;;;;9.15;5.57;;;;;;;25.88;37.73;99319.75;1088411;39;20633;-85
2023/05/21 11:48:32;;;;;;;6.95;5.50;;;;;;;25.89;37.36;99310.44;1087812;54;20022;-84
2023/05/21 11:49:37;;;;;;;6.95;5.60;;;;;;;25.89;36.99;99321.38;1087462;47;20036;-86
2023/05/21 11:50:41;;;;;;;8.23;5.10;;;;;;;26.09;36.68;99314.41;1087402;47;20053;-83
2023/05/21 11:52:48;;;;;;;6.22;5.00;;;;;;;26.45;36.06;99323.63;1086817;47;20055;-84
2023/05/21 11:53:50;;;;;;;7.30;5.35;;;;;;;26.45;35.80;99317.34;1087628;54;20030;-83
2023/05/21 11:54:56;;;;;;;7.13;4.88;;;;;;;26.58;35.35;99316.00;1087529;46;20051;-83
2023/05/21 11:56:00;;;;;;;7.00;4.55;;;;;;;26.68;34.44;99313.31;1087307;54;20027;-83
2023/05/21 11:57:07;;;;;;;6.60;4.85;;;;;;;26.70;35.03;99321.25;1087641;54;20034;-86
2023/05/21 11:58:15;;;;;;;6.82;4.65;;;;;;;26.55;35.38;99317.34;1087725;46;20980;-83
2023/05/21 11:59:18;;;;;;;8.60;5.30;;;;;;;26.38;35.96;99309.38;1087340;47;20030;-83
2023/05/21 12:01:25;;;;;;;7.80;5.72;;;;;;;26.46;35.24;99317.06;1090455;39;20711;-87
2023/05/21 12:02:29;;;;;;;7.18;5.30;;;;;;;26.42;35.07;99323.34;1087873;54;20737;-84
2023/05/21 12:04:37;;;;;;;5.97;4.60;;;;;;;26.53;34.87;99321.47;1087935;54;20010;-85
2023/05/21 12:05:51;;;;;;;6.63;5.07;;;;;;;26.34;35.27;99321.13;1085001;46;20041;-83
2023/05/21 12:06:52;;;;;;;7.43;4.68;;;;;;;26.18;36.02;99321.03;1087340;47;20095;-85
2023/05/21 12:07:57;;;;;;;6.93;5.40;;;;;;;26.15;36.11;99324.31;1087417;54;20113;-85
2023/05/21 12:09:03;;;;;;;7.95;5.55;;;;;;;26.00;36.82;99317.63;1087454;47;21236;-85
2023/05/21 12:10:09;;;;;;;7.57;5.50;;;;;;;26.07;36.96;99317.38;1087459;54;20034;-86
2023/05/21 12:13:33;;;;;;;7.32;5.70;;;;;;;25.99;36.97;99313.22;1087943;54;20023;-85
2023/05/21 12:14:36;;;;;;;10.15;5.85;;;;;;;25.96;36.95;99311.03;1087404;47;20112;-85
2023/05/21 12:15:40;;;;;;;7.40;5.68;;;;;;;25.93;37.17;99311.56;1087688;54;20061;-85
2023/05/21 12:16:41;;;;;;;8.90;5.95;;;;;;;25.95;36.89;99320.34;1087952;54;20049;-84
2023/05/21 12:17:45;;;;;;;7.70;5.78;;;;;;;25.93;37.21;99322.50;1087798;46;20034;-87
2023/05/21 12:18:46;;;;;;;8.15;5.68;;;;;;;25.89;37.44;99315.91;1087221;46;20027;-84
2023/05/21 12:22:15;;;;;;;7.18;5.85;;;;;;;26.08;37.09;99318.19;1087769;54;20026;-83
2023/05/21 12:23:19;;;;;;;9.82;5.53;;;;;;;26.04;37.07;99319.84;1087876;54;20060;-82
2023/05/21 12:24:23;;;;;;;6.15;4.68;;;;;;;25.81;37.32;99319.97;1087603;54;20716;-83
2023/05/21 12:25:24;;;;;;;6.22;4.90;;;;;;;25.93;37.26;99318.97;1087660;54;20034;-83
2023/05/21 12:27:30;;;;;;;7.50;5.65;;;;;;;25.96;36.88;99326.63;1087715;54;20034;-86
2023/05/21 12:29:43;;;;;;;8.20;6.20;;;;;;;26.05;36.65;99313.28;1086835;47;20070;31
2023/05/21 12:30:48;;;;;;;7.35;5.15;;;;;;;26.02;36.88;99322.84;1087517;47;20118;-84
2023/05/21 12:31:49;;;;;;;7.07;5.53;;;;;;;26.03;36.93;99316.25;1087536;54;21124;-85
2023/05/21 12:32:53;;;;;;;7.35;4.93;;;;;;;26.24;36.98;99316.41;1087666;47;20971;-84
2023/05/21 12:33:54;;;;;;;6.25;4.68;;;;;;;26.40;36.51;99314.56;1087431;54;20049;-82
2023/05/21 12:34:58;;;;;;;6.50;5.18;;;;;;;26.54;36.59;99310.25;1087368;47;20968;-83
2023/05/21 12:35:59;;;;;;;5.88;4.53;;;;;;;26.60;36.30;99306.44;1087496;47;20038;-86
2023/05/21 12:37:04;;;;;;;6.03;4.78;;;;;;;26.75;35.85;99307.53;1087239;47;20066;-84
2023/05/21 12:38:09;;;;;;;6.82;4.78;;;;;;;26.89;35.68;99313.38;1087446;54;20022;-85
2023/05/21 12:39:10;;;;;;;5.85;4.57;;;;;;;26.84;36.22;99313.38;1091172;39;21011;-84
2023/05/21 12:40:15;;;;;;;6.45;4.95;;;;;;;26.78;35.98;99309.78;1087356;54;20030;-84
2023/05/21 12:42:29;;;;;;;7.80;5.05;;;;;;;26.71;35.55;99310.00;1087912;54;20007;-84
2023/05/21 12:43:31;;;;;;;6.40;5.05;;;;;;;26.56;36.43;99307.22;1090315;39;20898;-86
2023/05/21 12:44:35;;;;;;;6.85;5.65;;;;;;;26.60;36.55;99314.66;1087463;47;20031;-83
2023/05/21 12:45:41;;;;;;;6.65;5.30;;;;;;;26.62;36.31;99304.25;1087332;54;20034;-84
2023/05/21 12:49:09;;;;;;;7.05;4.60;;;;;;;26.98;35.57;99310.94;1086462;54;20014;-84
2023/05/21 12:50:12;;;;;;;6.13;4.63;;;;;;;27.08;36.12;99313.69;1087400;54;20934;-82
2023/05/21 12:51:16;;;;;;;6.10;4.32;;;;;;;27.12;35.71;99309.28;1087476;54;20835;-83
2023/05/21 12:52:18;;;;;;;7.25;5.07;;;;;;;26.99;35.96;99309.84;1087964;39;21063;-85
2023/05/21 12:53:22;;;;;;;6.45;5.43;;;;;;;26.93;35.90;99320.78;1087199;47;20033;-84
2023/05/21 12:54:29;;;;;;;7.75;5.88;;;;;;;27.03;35.80;99305.44;1086910;47;20027;-82
2023/05/21 12:55:33;;;;;;;6.82;5.57;;;;;;;27.14;35.56;99309.84;1087055;46;20095;-82
2023/05/21 12:57:40;;;;;;;7.25;5.50;;;;;;;26.86;35.87;99305.72;1082477;54;20018;31
2023/05/21 12:58:49;;;;;;;6.10;5.10;;;;;;;27.02;35.81;99303.78;1087658;47;20007;-84
2023/05/21 12:59:55;;;;;;;9.40;5.78;;;;;;;26.98;36.03;99311.75;1087659;54;20035;-84
2023/05/21 13:00:58;;;;;;;8.00;5.20;;;;;;;26.94;35.65;99307.91;1087720;54;20042;-82
2023/05/21 13:03:11;;;;;;;7.72;5.38;;;;;;;26.75;35.78;99311.13;1087783;54;20078;-83
2023/05/21 13:04:13;;;;;;;7.90;5.57;;;;;;;26.81;35.55;99306.53;1087094;47;21037;-84
2023/05/21 13:05:30;;;;;;;7.40;5.60;;;;;;;26.93;35.36;99304.31;1083306;54;21306;-84
2023/05/21 13:06:41;;;;;;;7.28;5.70;;;;;;;27.05;35.02;99309.59;1077417;39;20308;31
2023/05/21 13:07:45;;;;;;;6.85;5.78;;;;;;;27.15;35.35;99297.78;1080423;54;20018;-84
2023/05/21 13:08:54;;;;;;;7.85;5.40;;;;;;;27.33;34.83;99298.34;1079087;54;20114;-83
2023/05/21 13:10:01;;;;;;;7.10;5.88;;;;;;;27.32;35.18;99293.94;1071581;54;20926;-85
2023/05/21 13:12:27;;;;;;;7.40;6.07;;;;;;;27.11;34.99;99302.19;1087609;54;20062;-82
2023/05/21 13:13:29;;;;;;;6.85;5.50;;;;;;;27.15;34.72;99296.97;1086949;47;20046;-80
2023/05/21 13:14:32;;;;;;;6.72;5.07;;;;;;;27.18;34.76;99297.25;1086805;47;20897;-82
2023/05/21 13:15:33;;;;;;;8.32;5.38;;;;;;;27.25;34.53;99295.03;1086872;47;20059;-85
2023/05/21 13:16:41;;;;;;;6.30;5.30;;;;;;;27.37;34.54;99288.47;1087028;54;20034;-84
2023/05/21 13:17:45;;;;;;;5.95;4.40;;;;;;;27.51;34.15;99295.06;1087535;47;20023;-85
2023/05/21 13:18:49;;;;;;;6.47;5.13;;;;;;;27.67;34.21;99284.91;1087400;47;20018;-83
2023/05/21 13:22:09;;;;;;;7.28;5.68;;;;;;;27.74;33.69;99279.13;1081281;47;20038;-86
2023/05/21 13:27:00;;;;;;;8.82;5.53;;;;;;;27.67;31.83;99281.34;1087615;54;20026;-84
2023/05/21 13:29:13;;;;;;;6.72;4.75;;;;;;;27.93;31.67;99290.31;1087546;54;20011;-84
2023/05/21 13:30:14;;;;;;;6.15;4.80;;;;;;;27.98;31.37;99284.00;1086969;47;20051;-83
2023/05/21 13:31:18;;;;;;;5.32;4.25;;;;;;;28.09;31.42;99288.38;1086933;54;20035;-83
2023/05/21 13:32:22;;;;;;;6.90;4.60;;;;;;;28.01;31.14;99287.00;1087085;54;20034;-85
2023/05/21 13:33:25;;;;;;;8.20;4.78;;;;;;;27.91;31.18;99275.25;1087140;47;20030;-83
2023/05/21 13:34:26;;;;;;;6.55;4.82;;;;;;;27.93;31.28;99281.28;1089775;39;20488;-83
2023/05/21 13:38:49;;;;;;;6.43;4.53;;;;;;;27.89;30.05;99270.03;1088135;54;20011;-85
2023/05/21 13:39:50;;;;;;;9.15;5.15;;;;;;;27.76;29.96;99274.19;1087823;54;20030;-83
2023/05/21 13:40:54;;;;;;;6.82;4.80;;;;;;;27.62;30.14;99264.88;1087542;54;20034;-83
2023/05/21 13:41:55;;;;;;;5.75;4.53;;;;;;;27.67;30.12;99265.69;1087423;54;20106;-82
2023/05/21 13:42:58;;;;;;;6.05;4.25;;;;;;;27.67;30.29;99267.63;1086983;47;20038;-83
2023/05/21 13:44:00;;;;;;;8.30;4.68;;;;;;;27.77;30.68;99275.00;1088259;39;21007;-85
2023/05/21 13:45:03;;;;;;;7.05;4.85;;;;;;;27.96;30.72;99272.50;1086889;54;20034;-81
2023/05/21 13:46:04;;;;;;;8.50;4.55;;;;;;;28.08;30.46;99275.75;1086741;54;20046;-82
2023/05/21 13:47:10;;;;;;;5.65;4.43;;;;;;;28.24;30.63;99283.97;1086803;54;20134;-83
2023/05/21 13:48:17;;;;;;;7.55;4.70;;;;;;;27.94;30.59;99269.19;1087016;54;20057;-81
2023/05/21 13:49:18;;;;;;;7.50;4.97;;;;;;;27.82;30.57;99273.06;1086928;47;20026;-83
2023/05/21 13:50:21;;;;;;;6.57;5.10;;;;;;;27.76;30.78;99278.84;1086802;47;20026;-84
2023/05/21 13:51:22;;;;;;;7.45;4.90;;;;;;;27.62;31.02;99278.59;1086852;54;20049;-83
2023/05/21 13:52:26;;;;;;;8.57;5.28;;;;;;;27.47;31.29;99283.00;1086861;47;20026;-83
2023/05/21 13:53:27;;;;;;;7.03;5.57;;;;;;;27.54;30.99;99280.81;1086934;54;20042;-82
2023/05/21 13:54:31;;;;;;;7.68;4.30;;;;;;;27.53;31.10;99279.16;1086644;47;20186;-82
2023/05/21 13:55:32;;;;;;;5.80;4.65;;;;;;;27.75;31.06;99285.44;1086618;54;20026;-84
2023/05/21 13:56:36;;;;;;;6.55;5.05;;;;;;;27.79;31.53;99284.59;1086900;54;20059;-83
2023/05/21 13:57:37;;;;;;;6.40;4.95;;;;;;;27.86;32.40;99285.16;1087205;54;20030;-84
2023/05/21 13:58:40;;;;;;;5.93;4.88;;;;;;;27.93;32.70;99287.56;1086946;47;20063;-83
2023/05/21 13:59:41;;;;;;;7.78;5.68;;;;;;;27.92;33.17;99288.69;1086753;54;20034;-82
2023/05/21 14:00:45;;;;;;;6.70;5.00;;;;;;;27.94;33.65;99291.16;1086820;54;20040;-83
2023/05/21 14:01:48;;;;;;;6.72;5.60;;;;;;;27.97;33.51;99291.44;1086770;47;20030;-81
2023/05/21 14:02:52;;;;;;;7.15;5.25;;;;;;;28.05;33.48;99281.81;1086777;47;20027;-83
2023/05/21 14:03:56;;;;;;;6.97;5.22;;;;;;;28.06;33.27;99293.59;1086777;47;20047;-84
2023/05/21 14:05:00;;;;;;;6.20;4.93;;;;;;;28.11;33.58;99296.34;1086776;54;20039;-82
2023/05/21 14:06:01;;;;;;;6.50;4.68;;;;;;;28.09;33.61;99290.34;1087192;47;20029;-82
2023/05/21 14:07:05;;;;;;;5.78;4.68;;;;;;;28.12;33.37;99292.50;1087109;54;20030;-82
2023/05/21 14:08:06;;;;;;;7.65;4.78;;;;;;;28.08;33.59;99294.97;1087259;47;20051;-85
2023/05/21 14:09:10;;;;;;;6.18;4.97;;;;;;;28.20;33.32;99282.88;1086915;47;20026;-83
2023/05/21 14:10:13;;;;;;;5.60;4.22;;;;;;;28.31;33.25;99292.72;1086723;47;20027;-83
2023/05/21 14:11:17;;;;;;;5.85;4.47;;;;;;;28.25;33.29;99293.81;1086807;47;20027;-83
2023/05/21 14:12:20;;;;;;;6.75;4.82;;;;;;;27.99;33.95;99285.66;1086860;54;20042;-83
2023/05/21 14:13:24;;;;;;;7.78;4.90;;;;;;;27.78;32.29;99282.94;1086948;47;20057;-83
2023/05/21 14:14:25;;;;;;;7.32;5.32;;;;;;;27.70;31.95;99286.25;1086859;54;20031;-86
2023/05/21 14:15:29;;;;;;;6.10;4.70;;;;;;;27.68;31.41;99283.81;1086902;47;20932;-85
2023/05/21 14:16:30;;;;;;;6.75;4.95;;;;;;;27.87;31.12;99281.28;1086825;54;20833;-82
2023/05/21 14:17:34;;;;;;;7.68;4.63;;;;;;;28.00;30.78;99284.53;1086861;47;20130;-83
2023/05/21 14:18:37;;;;;;;5.97;4.65;;;;;;;28.10;30.59;99290.03;1087067;47;20023;-83
2023/05/21 14:19:41;;;;;;;7.32;4.97;;;;;;;28.07;30.31;99296.09;1087077;47;20131;-83
2023/05/21 14:20:44;;;;;;;5.32;4.38;;;;;;;28.26;30.12;99292.72;1086919;54;20170;-83
2023/05/21 14:21:45;;;;;;;6.15;4.72;;;;;;;28.14;30.17;99282.91;1087150;46;20034;-83
2023/05/21 14:22:49;;;;;;;7.47;5.03;;;;;;;28.07;30.25;99295.25;1087038;47;20053;-83
2023/05/21 14:23:53;;;;;;;8.45;4.65;;;;;;;28.32;29.87;99291.63;1086955;54;20031;-81
2023/05/21 14:24:55;;;;;;;6.03;4.25;;;;;;;28.46;29.73;99287.13;1087352;39;20874;-81
2023/05/21 14:26:00;;;;;;;5.78;4.30;;;;;;;28.60;29.44;99289.28;1086990;47;20029;-82
2023/05/21 14:27:00;;;;;;;8.10;4.50;;;;;;;28.58;29.57;99284.06;1087161;47;20964;-80
2023/05/21 14:28:04;;;;;;;5.97;4.78;;;;;;;28.43;29.28;99292.38;1087007;47;20026;-82
2023/05/21 14:29:07;;;;;;;6.68;5.10;;;;;;;28.57;29.45;99290.69;1087052;54;20059;-82
2023/05/21 14:30:11;;;;;;;7.20;4.43;;;;;;;28.68;29.45;99291.44;1087134;46;20030;-82
2023/05/21 14:31:14;;;;;;;5.53;4.25;;;;;;;28.51;29.55;99294.53;1087120;47;20038;-82
2023/05/21 14:32:18;;;;;;;6.68;4.53;;;;;;;28.32;29.31;99297.13;1087023;54;20042;-82
2023/05/21 14:33:21;;;;;;;7.93;4.55;;;;;;;28.14;29.55;99299.38;1087125;47;20030;-83
2023/05/21 14:34:23;;;;;;;6.22;4.25;;;;;;;28.02;29.51;99296.88;1087120;47;20039;-84
2023/05/21 14:35:29;;;;;;;5.80;4.80;;;;;;;27.98;29.13;99292.22;1087320;47;20086;-82
2023/05/21 14:36:31;;;;;;;6.32;4.85;;;;;;;28.11;29.61;99291.69;1087090;54;20037;-82
2023/05/21 14:37:35;;;;;;;7.00;5.00;;;;;;;28.14;29.54;99295.78;1087086;54;20375;-83
2023/05/21 14:38:38;;;;;;;7.70;5.00;;;;;;;28.12;29.88;99298.00;1086663;54;20043;-81
2023/05/21 14:39:39;;;;;;;11.00;5.32;;;;;;;28.01;29.77;99294.44;1087083;47;20074;-83
2023/05/21 14:40:43;;;;;;;8.02;5.50;;;;;;;27.97;30.10;99290.59;1087113;54;20034;-83
2023/05/21 14:41:44;;;;;;;7.25;5.43;;;;;;;28.05;30.11;99298.28;1088856;39;20352;-83
2023/05/21 14:42:47;;;;;;;7.43;5.53;;;;;;;27.97;30.48;99296.09;1088758;39;21070;-83
2023/05/21 14:43:48;;;;;;;7.78;5.53;;;;;;;27.81;30.70;99287.88;1087142;47;20034;-81
2023/05/21 14:44:52;;;;;;;8.90;5.30;;;;;;;27.74;30.80;99298.34;1087063;47;20026;-82
2023/05/21 14:45:53;;;;;;;7.90;5.75;;;;;;;27.82;30.84;99294.22;1087081;54;20056;-84
2023/05/21 14:46:57;;;;;;;7.65;5.22;;;;;;;27.72;30.87;99292.31;1087022;54;20154;-81
2023/05/21 14:47:58;;;;;;;7.10;5.07;;;;;;;27.75;31.18;99300.00;1086874;47;20053;-83
2023/05/21 14:49:02;;;;;;;6.93;4.85;;;;;;;27.79;30.68;99290.09;1086924;54;20035;-81
2023/05/21 14:50:05;;;;;;;8.93;4.85;;;;;;;27.79;30.85;99292.03;1087023;54;20041;-82
2023/05/21 14:51:12;;;;;;;6.72;5.00;;;;;;;27.67;31.42;99295.06;1087093;54;20041;-83
2023/05/21 14:52:13;;;;;;;6.80;5.47;;;;;;;27.43;31.38;99298.38;1087072;54;20046;-85
2023/05/21 14:53:16;;;;;;;6.90;5.25;;;;;;;27.57;31.55;99293.13;1086928;47;20037;-82
2023/05/21 14:54:17;;;;;;;6.50;4.80;;;;;;;27.62;31.06;99278.59;1086924;47;20046;-85
2023/05/21 14:55:21;;;;;;;8.10;5.25;;;;;;;27.57;31.59;99292.34;1086929;54;20056;-82
2023/05/21 14:56:25;;;;;;;7.78;5.10;;;;;;;27.57;31.56;99292.34;1087053;54;20026;-83
2023/05/21 14:57:28;;;;;;;6.72;4.93;;;;;;;27.57;31.71;99284.91;1087031;54;20476;-82
2023/05/21 14:58:29;;;;;;;6.60;5.10;;;;;;;27.60;31.64;99289.84;1086912;46;21023;-82
2023/05/21 14:59:33;;;;;;;6.45;5.00;;;;;;;27.58;31.58;99294.78;1087260;46;20077;-81
2023/05/21 15:00:35;;;;;;;8.45;4.90;;;;;;;27.64;31.53;99287.38;1086943;54;20062;-84
2023/05/21 15:01:39;;;;;;;5.82;4.70;;;;;;;27.64;31.50;99288.19;1087028;54;20046;-82
2023/05/21 15:02:40;;;;;;;12.98;5.10;;;;;;;27.58;31.76;99292.03;1087017;54;20041;-83
2023/05/21 15:03:43;;;;;;;8.82;5.35;;;;;;;27.42;31.92;99285.72;1087031;46;20035;-85
2023/05/21 15:04:44;;;;;;;7.78;6.03;;;;;;;27.21;32.46;99288.44;1086977;54;21015;-83
2023/05/21 15:05:48;;;;;;;8.40;5.93;;;;;;;27.22;32.44;99281.88;1086945;47;20127;-84
2023/05/21 15:06:52;;;;;;;7.93;5.43;;;;;;;27.11;32.91;99284.88;1087088;54;20034;-84
2023/05/21 15:07:56;;;;;;;8.23;5.45;;;;;;;27.25;32.90;99288.75;1089085;39;20338;-81
2023/05/21 15:09:00;;;;;;;7.13;5.03;;;;;;;27.34;32.52;99286.25;1086893;54;20030;-83
2023/05/21 15:10:01;;;;;;;6.35;5.13;;;;;;;27.22;32.57;99284.63;1086850;47;20061;-82
2023/05/21 15:11:06;;;;;;;7.57;5.57;;;;;;;27.13;32.84;99283.50;1089150;39;20831;-84
2023/05/21 15:12:07;;;;;;;7.75;5.57;;;;;;;27.05;33.05;99287.63;1086977;47;20030;-83
2023/05/21 15:13:10;;;;;;;8.65;5.15;;;;;;;27.02;33.23;99284.59;1086980;47;20033;-82
2023/05/21 15:14:11;;;;;;;7.55;5.90;;;;;;;27.04;33.08;99279.66;1086908;47;20023;-84
2023/05/21 15:15:15;;;;;;;7.60;5.72;;;;;;;26.79;33.89;99284.03;1087116;54;20133;-83
2023/05/21 15:16:16;;;;;;;7.95;5.88;;;;;;;26.72;34.22;99287.00;1087195;46;20061;-84
2023/05/21 15:17:20;;;;;;;8.63;6.07;;;;;;;26.72;34.42;99283.44;1087035;54;21131;-83
2023/05/21 15:18:23;;;;;;;11.05;6.43;;;;;;;26.58;34.95;99278.47;1087053;54;20149;-83
2023/05/21 15:19:27;;;;;;;10.40;6.35;;;;;;;26.50;35.14;99292.69;1087179;46;20034;-81
2023/05/21 15:20:28;;;;;;;9.05;5.85;;;;;;;26.63;35.10;99288.63;1087018;47;20023;-83
2023/05/21 15:21:31;;;;;;;10.00;7.45;;;;;;;26.50;35.37;99291.88;1087157;47;20125;-82
2023/05/21 15:22:38;;;;;;;9.20;6.45;;;;;;;26.46;35.37;99288.81;1087216;54;20992;-84
2023/05/21 15:23:39;;;;;;;9.20;5.75;;;;;;;26.41;35.60;99284.16;1087205;54;20057;-83
2023/05/21 15:24:43;;;;;;;10.02;6.65;;;;;;;26.26;36.10;99293.13;1087134;46;20034;-84
2023/05/21 15:25:44;;;;;;;8.63;6.95;;;;;;;26.30;36.02;99291.50;1086967;47;20967;-85